createdAt,value
2018-04-07T00:01:19.341Z,4.70
2018-04-07T00:03:46.821Z,4.83
2018-04-07T00:06:15.062Z,4.40
2018-04-07T00:08:42.528Z,4.80
2018-04-07T00:11:10.039Z,4.63
2018-04-07T00:13:37.498Z,4.47
2018-04-07T00:16:05.015Z,4.80
2018-04-07T00:18:33.311Z,4.80
2018-04-07T00:21:01.714Z,4.90
2018-04-07T00:23:29.177Z,4.80
2018-04-07T00:25:56.686Z,4.80
2018-04-07T00:28:24.148Z,5.30
2018-04-07T00:30:52.398Z,5.23
2018-04-07T00:33:19.853Z,4.97
2018-04-07T00:35:47.442Z,4.80
2018-04-07T00:38:15.673Z,5.30
2018-04-07T00:40:43.162Z,4.63
2018-04-07T00:43:10.627Z,4.87
2018-04-07T00:45:38.089Z,4.80
2018-04-07T00:48:06.315Z,5.17
2018-04-07T00:50:33.812Z,4.47
2018-04-07T00:53:01.286Z,5.13
2018-04-07T00:55:29.515Z,4.97
2018-04-07T00:57:56.973Z,4.67
2018-04-07T01:00:24.604Z,4.87
2018-04-07T01:02:52.069Z,5.07
2018-04-07T01:05:19.621Z,4.67
2018-04-07T01:07:47.129Z,5.07
2018-04-07T01:10:15.353Z,4.80
2018-04-07T01:12:42.832Z,4.77
2018-04-07T01:15:10.292Z,4.87
2018-04-07T01:17:37.785Z,5.03
2018-04-07T01:20:05.242Z,4.77
2018-04-07T01:22:32.712Z,4.93
2018-04-07T01:25:00.941Z,5.17
2018-04-07T01:27:28.439Z,4.73
2018-04-07T01:29:56.748Z,4.57
2018-04-07T01:32:24.248Z,4.70
2018-04-07T01:34:51.717Z,4.87
2018-04-07T01:37:19.196Z,5.10
2018-04-07T01:39:47.425Z,4.93
2018-04-07T01:42:14.913Z,5.60
2018-04-07T01:44:42.360Z,5.03
2018-04-07T01:47:09.817Z,5.33
2018-04-07T01:49:37.281Z,5.13
2018-04-07T01:52:04.728Z,5.20
2018-04-07T01:54:32.204Z,5.33
2018-04-07T01:57:00.513Z,5.10
2018-04-07T01:59:28.035Z,5.00
2018-04-07T02:01:55.496Z,4.93
2018-04-07T02:04:23.756Z,5.37
2018-04-07T02:06:51.219Z,5.43
2018-04-07T02:09:19.317Z,5.20
2018-04-07T02:11:47.538Z,5.20
2018-04-07T02:14:15.018Z,5.07
2018-04-07T02:16:42.499Z,5.43
2018-04-07T02:19:10.740Z,4.80
2018-04-07T02:21:38.262Z,5.10
2018-04-07T02:24:05.816Z,5.57
2018-04-07T02:26:33.285Z,4.97
2018-04-07T02:29:00.785Z,5.37
2018-04-07T02:31:29.219Z,5.77
2018-04-07T02:33:56.681Z,5.10
2018-04-07T02:36:24.227Z,5.87
2018-04-07T02:38:51.787Z,5.40
2018-04-07T02:41:19.304Z,5.47
2018-04-07T02:43:46.860Z,5.33
2018-04-07T02:46:14.326Z,5.30
2018-04-07T02:48:42.604Z,5.50
2018-04-07T02:51:10.913Z,5.70
2018-04-07T02:53:38.377Z,5.33
2018-04-07T02:56:05.861Z,5.37
2018-04-07T02:58:33.354Z,5.43
2018-04-07T03:01:01.614Z,5.23
2018-04-07T03:03:29.153Z,6.10
2018-04-07T03:05:56.838Z,6.03
2018-04-07T03:08:24.289Z,5.40
2018-04-07T03:10:52.564Z,4.83
2018-04-07T03:13:20.025Z,5.03
2018-04-07T03:15:47.497Z,5.50
2018-04-07T03:18:15.730Z,5.20
2018-04-07T03:20:43.254Z,5.30
2018-04-07T03:23:11.507Z,4.80
2018-04-07T03:25:39.750Z,5.37
2018-04-07T03:28:07.234Z,5.57
2018-04-07T03:30:35.473Z,5.03
2018-04-07T03:33:02.941Z,5.03
2018-04-07T03:35:30.550Z,5.13
2018-04-07T03:37:58.022Z,5.40
2018-04-07T03:40:25.522Z,5.87
2018-04-07T03:42:52.977Z,5.20
2018-04-07T03:45:20.557Z,4.97
2018-04-07T03:47:48.105Z,5.53
2018-04-07T03:50:15.574Z,5.20
2018-04-07T03:52:43.070Z,5.30
2018-04-07T03:55:10.534Z,5.10
2018-04-07T03:57:37.986Z,4.97
2018-04-07T04:00:05.476Z,5.27
2018-04-07T04:02:32.950Z,5.33
2018-04-07T04:05:00.425Z,4.83
2018-04-07T04:07:28.728Z,5.50
2018-04-07T04:09:56.254Z,5.03
2018-04-07T04:12:24.521Z,5.53
2018-04-07T04:14:51.998Z,5.57
2018-04-07T04:17:19.455Z,5.40
2018-04-07T04:19:46.917Z,5.40
2018-04-07T04:22:14.425Z,5.33
2018-04-07T04:24:41.992Z,5.40
2018-04-07T04:27:09.454Z,5.00
2018-04-07T04:29:36.924Z,5.60
2018-04-07T04:32:05.230Z,5.33
2018-04-07T04:34:32.736Z,5.03
2018-04-07T04:37:00.293Z,5.43
2018-04-07T04:39:27.804Z,5.03
2018-04-07T04:41:55.296Z,5.10
2018-04-07T04:44:22.818Z,5.00
2018-04-07T04:46:50.291Z,5.73
2018-04-07T04:49:17.795Z,5.43
2018-04-07T04:51:45.291Z,4.80
2018-04-07T04:54:12.952Z,5.57
2018-04-07T04:56:40.485Z,5.40
2018-04-07T04:59:08.717Z,5.00
2018-04-07T05:01:36.303Z,5.23
2018-04-07T05:04:04.533Z,5.17
2018-04-07T05:06:32.007Z,5.07
2018-04-07T05:11:32.581Z,4.97
2018-04-07T05:14:00.056Z,4.43
2018-04-07T05:16:28.296Z,4.90
2018-04-07T05:18:55.742Z,5.27
2018-04-07T05:21:23.243Z,4.87
2018-04-07T05:23:51.476Z,5.03
2018-04-07T05:26:18.990Z,5.20
2018-04-07T05:28:46.450Z,5.03
2018-04-07T05:31:13.934Z,4.80
2018-04-07T05:33:41.418Z,4.77
2018-04-07T05:36:08.914Z,5.50
2018-04-07T05:38:36.377Z,5.10
2018-04-07T05:41:04.001Z,5.43
2018-04-07T05:43:31.461Z,5.30
2018-04-07T05:45:58.933Z,5.33
2018-04-07T05:48:27.254Z,5.10
2018-04-07T05:50:54.805Z,5.30
2018-04-07T05:53:22.260Z,5.40
2018-04-07T05:55:49.764Z,5.00
2018-04-07T05:58:17.275Z,5.40
2018-04-07T06:00:44.745Z,5.17
2018-04-07T06:03:12.201Z,5.37
2018-04-07T06:05:39.689Z,5.13
2018-04-07T06:08:07.152Z,5.57
2018-04-07T06:10:34.628Z,5.87
2018-04-07T06:13:02.889Z,5.10
2018-04-07T06:15:30.448Z,5.43
2018-04-07T06:17:58.039Z,6.27
2018-04-07T06:20:26.273Z,5.73
2018-04-07T06:22:54.542Z,5.77
2018-04-07T06:25:22.119Z,6.10
2018-04-07T06:27:49.730Z,5.83
2018-04-07T06:30:17.237Z,5.27
2018-04-07T06:32:44.716Z,5.63
2018-04-07T06:35:12.987Z,5.97
2018-04-07T06:37:41.294Z,6.30
2018-04-07T06:40:08.773Z,6.63
2018-04-07T06:42:36.310Z,5.77
2018-04-07T06:45:03.767Z,6.13
2018-04-07T06:47:31.333Z,6.43
2018-04-07T06:49:58.836Z,6.17
2018-04-07T06:52:26.378Z,6.20
2018-04-07T06:54:53.846Z,5.43
2018-04-07T06:57:21.353Z,5.87
2018-04-07T06:59:49.617Z,5.93
2018-04-07T07:02:17.180Z,5.97
2018-04-07T07:04:45.425Z,6.43
2018-04-07T07:07:12.915Z,6.30
2018-04-07T07:09:41.205Z,6.57
2018-04-07T07:12:09.553Z,6.53
2018-04-07T07:14:37.049Z,6.43
2018-04-07T07:17:04.558Z,6.27
2018-04-07T07:19:32.025Z,6.60
2018-04-07T07:21:59.491Z,6.60
2018-04-07T07:24:26.949Z,6.23
2018-04-07T07:26:54.785Z,6.73
2018-04-07T07:29:22.315Z,6.73
2018-04-07T07:31:49.855Z,6.73
2018-04-07T07:34:17.321Z,6.50
2018-04-07T07:36:44.841Z,6.40
2018-04-07T07:39:12.307Z,7.10
2018-04-07T07:41:40.569Z,6.40
2018-04-07T07:44:08.038Z,6.37
2018-04-07T07:46:35.620Z,6.60
2018-04-07T07:49:03.892Z,6.90
2018-04-07T07:51:32.163Z,6.83
2018-04-07T07:54:00.421Z,7.73
2018-04-07T07:56:27.896Z,6.67
2018-04-07T07:58:56.157Z,6.47
2018-04-07T08:01:24.348Z,7.03
2018-04-07T08:03:52.640Z,6.60
2018-04-07T08:06:20.113Z,6.33
2018-04-07T08:08:47.628Z,7.20
2018-04-07T08:11:15.126Z,7.17
2018-04-07T08:13:44.111Z,7.37
2018-04-07T08:16:11.623Z,7.40
2018-04-07T08:18:39.853Z,6.67
2018-04-07T08:21:07.350Z,7.33
2018-04-07T08:23:34.823Z,6.60
2018-04-07T08:26:02.333Z,8.02
2018-04-07T08:28:29.833Z,7.03
2018-04-07T08:30:57.411Z,6.93
2018-04-07T08:33:24.870Z,7.40
2018-04-07T08:35:52.392Z,7.03
2018-04-07T08:38:20.639Z,7.00
2018-04-07T08:40:48.177Z,6.77
2018-04-07T08:43:15.658Z,7.03
2018-04-07T08:45:43.157Z,7.23
2018-04-07T08:48:11.399Z,7.40
2018-04-07T08:50:38.907Z,7.67
2018-04-07T08:53:06.387Z,7.80
2018-04-07T08:55:33.862Z,7.93
2018-04-07T08:58:01.478Z,8.53
2018-04-07T09:00:28.963Z,10.63
2018-04-07T09:02:56.462Z,31.63
2018-04-07T09:05:24.693Z,8.17
2018-04-07T09:07:52.338Z,8.07
2018-04-07T09:10:19.827Z,7.97
2018-04-07T09:12:47.479Z,7.30
2018-04-07T09:15:14.950Z,8.10
2018-04-07T09:17:42.470Z,7.97
2018-04-07T09:20:09.965Z,8.40
2018-04-07T09:22:37.550Z,7.83
2018-04-07T09:25:05.799Z,8.07
2018-04-07T09:27:33.278Z,8.10
2018-04-07T09:30:00.784Z,8.63
2018-04-07T09:32:28.297Z,8.60
2018-04-07T09:34:56.536Z,7.53
2018-04-07T09:37:24.029Z,8.50
2018-04-07T09:39:52.270Z,8.93
2018-04-07T09:42:19.766Z,8.47
2018-04-07T09:44:48.008Z,7.80
2018-04-07T09:47:15.500Z,9.00
2018-04-07T09:49:43.743Z,8.10
2018-04-07T09:52:11.339Z,8.83
2018-04-07T09:54:39.578Z,8.47
2018-04-07T09:57:07.078Z,8.37
2018-04-07T09:59:35.343Z,7.97
2018-04-07T10:02:03.575Z,8.63
2018-04-07T10:04:31.072Z,8.00
2018-04-07T10:06:59.394Z,8.43
2018-04-07T10:09:26.896Z,8.53
2018-04-07T10:11:54.387Z,9.43
2018-04-07T10:14:21.889Z,12.67
2018-04-07T10:16:49.349Z,8.57
2018-04-07T10:19:17.373Z,8.87
2018-04-07T10:21:44.838Z,9.03
2018-04-07T10:24:12.348Z,8.70
2018-04-07T10:26:39.862Z,8.77
2018-04-07T10:29:07.422Z,9.07
2018-04-07T10:31:34.907Z,8.70
2018-04-07T10:34:02.401Z,8.53
2018-04-07T10:36:30.640Z,8.37
2018-04-07T10:38:58.125Z,9.60
2018-04-07T10:41:25.729Z,9.60
2018-04-07T10:43:53.227Z,8.70
2018-04-07T10:46:20.714Z,9.33
2018-04-07T10:48:49.021Z,9.27
2018-04-07T10:53:50.486Z,9.03
2018-04-07T10:56:17.965Z,9.10
2018-04-07T10:58:45.444Z,9.83
2018-04-07T11:01:12.960Z,9.43
2018-04-07T11:03:40.491Z,9.40
2018-04-07T11:06:08.778Z,9.50
2018-04-07T11:08:37.027Z,8.40
2018-04-07T11:11:06.071Z,8.63
2018-04-07T11:13:33.564Z,8.70
2018-04-07T11:16:01.144Z,9.00
2018-04-07T11:18:29.387Z,10.03
2018-04-07T11:20:56.875Z,9.20
2018-04-07T11:23:25.109Z,9.53
2018-04-07T11:25:52.585Z,9.00
2018-04-07T11:28:20.077Z,9.53
2018-04-07T11:30:48.334Z,10.40
2018-04-07T11:33:17.332Z,8.90
2018-04-07T11:35:44.812Z,8.53
2018-04-07T11:38:13.075Z,9.23
2018-04-07T11:40:41.344Z,8.70
2018-04-07T11:43:08.854Z,8.30
2018-04-07T11:45:36.364Z,9.17
2018-04-07T11:48:04.644Z,8.77
2018-04-07T11:50:32.890Z,8.40
2018-04-07T11:53:00.389Z,8.70
2018-04-07T11:55:27.894Z,9.07
2018-04-07T11:57:55.410Z,8.97
2018-04-07T12:00:22.890Z,9.57
2018-04-07T12:02:50.390Z,9.43
2018-04-07T12:05:18.651Z,10.30
2018-04-07T12:07:46.193Z,9.60
2018-04-07T12:10:13.677Z,9.83
2018-04-07T12:12:41.296Z,9.50
2018-04-07T12:15:08.764Z,9.67
2018-04-07T12:17:36.249Z,9.23
2018-04-07T12:20:03.849Z,9.10
2018-04-07T12:22:32.105Z,9.90
2018-04-07T12:25:00.361Z,13.93
2018-04-07T12:27:27.887Z,9.70
2018-04-07T12:29:55.374Z,10.03
2018-04-07T12:32:22.894Z,8.90
2018-04-07T12:34:50.436Z,9.77
2018-04-07T12:37:17.920Z,9.43
2018-04-07T12:39:45.521Z,9.50
2018-04-07T12:42:13.127Z,9.17
2018-04-07T12:44:40.601Z,9.73
2018-04-07T12:47:08.111Z,9.13
2018-04-07T12:49:36.379Z,9.33
2018-04-07T12:52:04.674Z,9.00
2018-04-07T12:54:32.905Z,9.00
2018-04-07T12:57:00.405Z,9.63
2018-04-07T12:59:28.644Z,9.30
2018-04-07T13:01:56.235Z,8.97
2018-04-07T13:04:24.470Z,9.20
2018-04-07T13:06:51.962Z,8.63
2018-04-07T13:09:20.190Z,8.87
2018-04-07T13:11:47.713Z,8.40
2018-04-07T13:14:15.193Z,9.03
2018-04-07T13:16:42.673Z,9.43
2018-04-07T13:19:10.166Z,7.97
2018-04-07T13:21:38.413Z,9.40
2018-04-07T13:24:05.933Z,9.03
2018-04-07T13:26:33.403Z,8.53
2018-04-07T13:29:00.887Z,8.43
2018-04-07T13:31:28.365Z,8.30
2018-04-07T13:33:57.158Z,8.70
2018-04-07T13:36:25.478Z,9.10
2018-04-07T13:38:52.971Z,7.57
2018-04-07T13:41:21.187Z,7.83
2018-04-07T13:43:48.688Z,7.33
2018-04-07T13:46:16.159Z,8.53
2018-04-07T13:48:43.644Z,8.03
2018-04-07T13:51:11.898Z,8.07
2018-04-07T13:53:39.409Z,7.17
2018-04-07T13:56:06.881Z,8.00
2018-04-07T13:58:34.374Z,7.67
2018-04-07T14:01:01.847Z,7.20
2018-04-07T14:03:30.108Z,7.30
2018-04-07T14:05:57.614Z,6.37
2018-04-07T14:08:25.145Z,7.00
2018-04-07T14:10:53.382Z,6.83
2018-04-07T14:13:20.916Z,6.60
2018-04-07T14:15:48.416Z,6.87
2018-04-07T14:18:15.894Z,6.97
2018-04-07T14:20:44.186Z,7.07
2018-04-07T14:23:11.690Z,7.07
2018-04-07T14:25:39.166Z,7.07
2018-04-07T14:28:06.644Z,6.70
2018-04-07T14:30:34.873Z,7.20
2018-04-07T14:33:02.339Z,6.67
2018-04-07T14:35:29.823Z,6.03
2018-04-07T14:37:58.057Z,5.83
2018-04-07T14:40:25.562Z,5.47
2018-04-07T14:42:53.797Z,5.40
2018-04-07T14:45:21.302Z,6.00
2018-04-07T14:47:49.572Z,5.93
2018-04-07T14:50:17.818Z,5.43
2018-04-07T14:52:45.289Z,5.47
2018-04-07T14:55:14.279Z,5.47
2018-04-07T14:57:41.749Z,5.67
2018-04-07T15:00:10.163Z,6.30
2018-04-07T15:02:37.688Z,5.90
2018-04-07T15:05:06.105Z,5.57
2018-04-07T15:07:33.572Z,5.30
2018-04-07T15:10:01.087Z,5.27
2018-04-07T15:15:03.975Z,5.00
2018-04-07T15:17:32.208Z,5.07
2018-04-07T15:19:59.690Z,4.50
2018-04-07T15:22:27.179Z,5.00
2018-04-07T15:24:55.442Z,4.80
2018-04-07T15:27:22.941Z,4.55
2018-04-07T15:29:50.421Z,4.72
2018-04-07T15:32:17.956Z,5.10
2018-04-07T15:34:45.436Z,4.50
2018-04-07T15:37:12.983Z,4.32
2018-04-07T15:39:40.462Z,4.07
2018-04-07T15:42:07.958Z,3.85
2018-04-07T15:44:36.209Z,4.20
2018-04-07T15:47:03.694Z,4.95
2018-04-07T15:49:32.070Z,4.57
2018-04-07T15:52:00.352Z,3.67
2018-04-07T15:54:28.734Z,3.75
2018-04-07T15:56:57.760Z,3.40
2018-04-07T15:59:25.246Z,3.87
2018-04-07T16:01:52.717Z,3.42
2018-04-07T16:04:21.104Z,3.33
2018-04-07T16:06:49.337Z,3.80
2018-04-07T16:09:16.844Z,3.03
2018-04-07T16:11:44.321Z,3.37
2018-04-07T16:14:11.894Z,3.28
2018-04-07T16:16:39.374Z,3.00
2018-04-07T16:19:06.873Z,3.12
2018-04-07T16:21:35.109Z,2.83
2018-04-07T16:24:02.613Z,3.08
2018-04-07T16:26:30.864Z,3.15
2018-04-07T16:28:58.346Z,3.10
2018-04-07T16:31:25.853Z,2.97
2018-04-07T16:33:53.332Z,3.10
2018-04-07T16:36:20.802Z,3.60
2018-04-07T16:38:48.297Z,3.85
2018-04-07T16:41:15.774Z,3.70
2018-04-07T16:43:43.285Z,3.75
2018-04-07T16:46:12.049Z,3.37
2018-04-07T16:48:39.537Z,3.87
2018-04-07T16:51:07.785Z,3.73
2018-04-07T16:53:35.273Z,3.90
2018-04-07T16:56:02.773Z,3.70
2018-04-07T16:58:30.266Z,3.70
2018-04-07T17:00:57.841Z,3.90
2018-04-07T17:03:25.326Z,3.73
2018-04-07T17:05:52.802Z,3.67
2018-04-07T17:08:20.297Z,3.47
2018-04-07T17:10:47.772Z,3.73
2018-04-07T17:13:16.075Z,3.53
2018-04-07T17:15:43.621Z,3.50
2018-04-07T17:18:11.155Z,3.60
2018-04-07T17:20:40.318Z,3.63
2018-04-07T17:23:07.868Z,3.67
2018-04-07T17:25:35.361Z,3.83
2018-04-07T17:28:02.861Z,3.90
2018-04-07T17:30:30.327Z,3.33
2018-04-07T17:32:57.808Z,3.60
2018-04-07T17:35:25.317Z,3.80
2018-04-07T17:37:52.817Z,3.40
2018-04-07T17:40:20.276Z,4.60
2018-04-07T17:42:47.869Z,6.73
2018-04-07T17:45:16.104Z,6.47
2018-04-07T17:47:43.584Z,7.87
2018-04-07T17:50:11.083Z,7.67
2018-04-07T17:52:38.612Z,10.83
2018-04-07T17:55:06.217Z,7.23
2018-04-07T17:57:33.776Z,6.17
2018-04-07T18:00:01.340Z,9.27
2018-04-07T18:02:28.870Z,13.57
2018-04-07T18:04:57.137Z,9.20
2018-04-07T18:07:25.373Z,14.37
2018-04-07T18:09:52.853Z,6.30
2018-04-07T18:12:21.023Z,5.53
2018-04-07T18:14:48.509Z,5.43
2018-04-07T18:17:16.764Z,6.57
2018-04-07T18:19:44.325Z,5.60
2018-04-07T18:22:11.853Z,9.23
2018-04-07T18:24:39.391Z,7.27
2018-04-07T18:27:06.841Z,5.67
2018-04-07T18:29:34.353Z,6.23
2018-04-07T18:32:01.826Z,6.10
2018-04-07T18:34:30.163Z,6.10
2018-04-07T18:36:57.658Z,5.83
2018-04-07T18:39:25.918Z,6.63
2018-04-07T18:41:53.565Z,6.90
2018-04-07T18:44:21.061Z,6.40
2018-04-07T18:46:48.537Z,6.70
2018-04-07T18:49:16.030Z,6.43
2018-04-07T18:51:43.516Z,6.93
2018-04-07T18:54:10.997Z,7.87
2018-04-07T18:56:39.294Z,10.30
2018-04-07T18:59:07.783Z,11.40
2018-04-07T19:01:35.335Z,9.87
2018-04-07T19:04:03.002Z,9.97
2018-04-07T19:06:30.492Z,8.60
2018-04-07T19:08:58.743Z,8.37
2018-04-07T19:11:26.213Z,7.80
2018-04-07T19:13:53.830Z,7.20
2018-04-07T19:16:22.094Z,7.10
2018-04-07T19:18:50.374Z,6.80
2018-04-07T19:21:18.738Z,7.17
2018-04-07T19:23:47.011Z,6.60
2018-04-07T19:26:14.480Z,7.10
2018-04-07T19:28:42.755Z,7.00
2018-04-07T19:31:11.069Z,7.77
2018-04-07T19:33:38.568Z,9.20
2018-04-07T19:36:06.810Z,9.57
2018-04-07T19:38:34.298Z,9.53
2018-04-07T19:41:01.783Z,8.53
2018-04-07T19:43:30.048Z,8.67
2018-04-07T19:45:58.342Z,8.20
2018-04-07T19:48:26.607Z,6.93
2018-04-07T19:50:54.854Z,7.00
2018-04-07T19:53:22.349Z,7.43
2018-04-07T19:55:50.573Z,7.20
2018-04-07T19:58:18.055Z,6.83
2018-04-07T20:00:45.758Z,7.30
2018-04-07T20:03:13.228Z,7.10
2018-04-07T20:05:40.749Z,7.40
2018-04-07T20:08:08.978Z,7.30
2018-04-07T20:10:36.497Z,6.97
2018-04-07T20:13:04.728Z,6.90
2018-04-07T20:15:32.234Z,8.13
2018-04-07T20:17:59.784Z,7.00
2018-04-07T20:20:28.944Z,7.40
2018-04-07T20:22:56.423Z,8.07
2018-04-07T20:25:23.945Z,8.00
2018-04-07T20:27:51.432Z,7.03
2018-04-07T20:30:18.920Z,7.73
2018-04-07T20:32:46.403Z,7.70
2018-04-07T20:35:13.894Z,7.77
2018-04-07T20:37:41.382Z,7.03
2018-04-07T20:40:09.637Z,6.80
2018-04-07T20:42:37.125Z,7.90
2018-04-07T20:45:04.665Z,8.73
2018-04-07T20:47:32.906Z,8.03
2018-04-07T20:50:00.496Z,8.70
2018-04-07T20:52:28.814Z,7.50
2018-04-07T20:54:56.346Z,7.63
2018-04-07T20:57:24.604Z,7.77
2018-04-07T20:59:52.515Z,8.13
2018-04-07T21:02:20.037Z,6.93
2018-04-07T21:04:48.407Z,7.33
2018-04-07T21:07:16.636Z,7.77
2018-04-07T21:09:44.141Z,7.20
2018-04-07T21:12:12.374Z,7.43
2018-04-07T21:14:39.909Z,7.27
2018-04-07T21:17:07.386Z,7.83
2018-04-07T21:19:34.888Z,8.20
2018-04-07T21:22:02.355Z,7.73
2018-04-07T21:24:30.659Z,8.60
2018-04-07T21:26:58.184Z,8.60
2018-04-07T21:29:25.712Z,8.60
2018-04-07T21:31:53.185Z,8.07
2018-04-07T21:34:21.453Z,8.60
2018-04-07T21:36:48.926Z,7.50
2018-04-07T21:39:16.468Z,7.90
2018-04-07T21:41:44.090Z,8.37
2018-04-07T21:44:11.606Z,7.63
2018-04-07T21:46:39.846Z,7.43
2018-04-07T21:49:07.382Z,8.10
2018-04-07T21:51:34.902Z,7.80
2018-04-07T21:54:03.177Z,7.80
2018-04-07T21:56:30.640Z,7.57
2018-04-07T21:58:58.949Z,8.67
2018-04-07T22:01:26.922Z,8.10
2018-04-07T22:03:54.413Z,8.47
2018-04-07T22:06:21.961Z,8.37
2018-04-07T22:08:49.444Z,8.27
2018-04-07T22:11:16.969Z,8.13
2018-04-07T22:13:44.480Z,8.47
2018-04-07T22:16:12.726Z,8.70
2018-04-07T22:18:40.211Z,9.20
2018-04-07T22:21:08.477Z,9.00
2018-04-07T22:23:35.951Z,9.63
2018-04-07T22:26:05.194Z,8.73
2018-04-07T22:28:32.657Z,9.33
2018-04-07T22:31:00.130Z,8.83
2018-04-07T22:33:27.602Z,9.50
2018-04-07T22:35:55.178Z,9.53
2018-04-07T22:38:23.408Z,8.43
2018-04-07T22:40:50.900Z,9.27
2018-04-07T22:43:19.132Z,9.07
2018-04-07T22:45:46.610Z,9.37
2018-04-07T22:48:14.079Z,8.90
2018-04-07T22:50:41.569Z,8.90
2018-04-07T22:53:09.029Z,8.77
2018-04-07T22:55:36.510Z,9.57
2018-04-07T22:58:03.998Z,8.70
2018-04-07T23:00:31.478Z,8.80
2018-04-07T23:02:59.720Z,8.43
2018-04-07T23:05:27.198Z,8.93
2018-04-07T23:07:55.427Z,8.33
2018-04-07T23:10:22.979Z,9.30
2018-04-07T23:12:50.450Z,8.63
2018-04-07T23:15:17.995Z,9.07
2018-04-07T23:17:45.468Z,8.97
2018-04-07T23:20:12.949Z,9.33
2018-04-07T23:22:40.413Z,8.27
2018-04-07T23:25:07.897Z,7.93
2018-04-07T23:27:36.164Z,7.90
2018-04-07T23:30:04.445Z,8.27
2018-04-07T23:32:32.682Z,7.90
2018-04-07T23:35:00.180Z,8.57
2018-04-07T23:37:28.441Z,8.53
2018-04-07T23:39:55.941Z,8.80
2018-04-07T23:42:24.176Z,7.93
2018-04-07T23:44:51.658Z,8.20
2018-04-07T23:47:19.886Z,7.93
2018-04-07T23:49:47.447Z,8.27
2018-04-07T23:52:14.925Z,8.63
2018-04-07T23:54:42.449Z,8.63
2018-04-07T23:57:10.014Z,8.63
2018-04-07T23:59:37.498Z,8.00
